createdAt,value
2023-04-10T00:00:33.027Z,100775.72
2023-04-10T00:03:03.494Z,100768.91
2023-04-10T00:05:30.788Z,100766.66
2023-04-10T00:07:57.551Z,100768.41
2023-04-10T00:10:26.509Z,100766.81
2023-04-10T00:12:54.220Z,100766.94
2023-04-10T00:15:21.254Z,100767.91
2023-04-10T00:17:48.095Z,100757.91
2023-04-10T00:20:14.868Z,100762.22
2023-04-10T00:22:42.993Z,100758.16
2023-04-10T00:25:09.928Z,100761.69
2023-04-10T00:27:36.658Z,100756.53
2023-04-10T00:30:03.519Z,100761.69
2023-04-10T00:32:30.690Z,100769.59
2023-04-10T00:34:57.468Z,100770.84
2023-04-10T00:37:24.308Z,100763.94
2023-04-10T00:39:51.143Z,100760.41
2023-04-10T00:42:17.911Z,100761.22
2023-04-10T00:44:44.609Z,100756.72
2023-04-10T00:47:12.657Z,100766.38
2023-04-10T00:49:39.568Z,100763.66
2023-04-10T00:52:06.411Z,100761.69
2023-04-10T00:54:33.455Z,100760.91
2023-04-10T00:57:00.240Z,100758.16
2023-04-10T00:59:27.204Z,100751.91
2023-04-10T01:01:55.820Z,100755.97
2023-04-10T01:04:23.887Z,100759.50
2023-04-10T01:07:15.757Z,100751.72
2023-04-10T01:09:56.391Z,100753.19
2023-04-10T01:12:29.106Z,100752.84
2023-04-10T01:15:20.401Z,100754.28
2023-04-10T01:18:22.758Z,100756.53
2023-04-10T01:20:49.590Z,100759.78
2023-04-10T01:23:51.877Z,100747.66
2023-04-10T01:26:37.505Z,100753.34
2023-04-10T01:29:11.559Z,100755.25
2023-04-10T01:31:59.863Z,100762.03
2023-04-10T01:34:49.608Z,100757.00
2023-04-10T01:37:30.473Z,100752.28
2023-04-10T01:40:03.922Z,100751.47
2023-04-10T01:42:35.074Z,100747.94
2023-04-10T01:45:04.236Z,100752.00
2023-04-10T01:47:31.446Z,100750.34
2023-04-10T01:49:59.420Z,100746.63
2023-04-10T01:52:28.909Z,100748.41
2023-04-10T01:55:15.353Z,100742.84
2023-04-10T01:57:49.108Z,100751.41
2023-04-10T02:00:17.709Z,100746.38
2023-04-10T02:02:45.101Z,100749.66
2023-04-10T02:05:12.078Z,100757.25
2023-04-10T02:07:54.445Z,100749.66
2023-04-10T02:10:31.531Z,100756.94
2023-04-10T02:13:13.875Z,100757.28
2023-04-10T02:15:46.476Z,100753.63
2023-04-10T02:18:17.079Z,100754.59
2023-04-10T02:20:44.425Z,100750.09
2023-04-10T02:23:13.137Z,100754.16
2023-04-10T02:25:39.911Z,100742.88
2023-04-10T02:28:07.787Z,100751.38
2023-04-10T02:30:35.953Z,100751.38
2023-04-10T02:33:02.963Z,100751.25
2023-04-10T02:35:31.601Z,100739.50
2023-04-10T02:37:58.505Z,100741.41
2023-04-10T02:40:25.350Z,100735.03
2023-04-10T02:43:21.422Z,100742.44
2023-04-10T02:45:48.275Z,100735.81
2023-04-10T02:48:21.761Z,100729.97
2023-04-10T02:51:00.109Z,100740.56
2023-04-10T02:53:28.924Z,100740.44
2023-04-10T02:55:58.969Z,100739.63
2023-04-10T02:58:25.921Z,100733.81
2023-04-10T03:00:55.629Z,100731.53
2023-04-10T03:03:28.917Z,100734.41
2023-04-10T03:05:56.654Z,100721.50
2023-04-10T03:08:30.404Z,100724.22
2023-04-10T03:10:57.335Z,100722.47
2023-04-10T03:13:24.110Z,100719.22
2023-04-10T03:15:51.013Z,100718.56
2023-04-10T03:18:18.435Z,100723.72
2023-04-10T03:20:47.375Z,100727.25
2023-04-10T03:23:14.209Z,100726.44
2023-04-10T03:25:41.329Z,100730.50
2023-04-10T03:28:09.401Z,100732.13
2023-04-10T03:30:37.188Z,100727.50
2023-04-10T03:33:04.290Z,100733.13
2023-04-10T03:35:31.488Z,100732.84
2023-04-10T03:37:58.501Z,100745.59
2023-04-10T03:40:25.349Z,100741.38
2023-04-10T03:42:52.210Z,100741.53
2023-04-10T03:45:19.056Z,100739.44
2023-04-10T03:47:45.926Z,100739.69
2023-04-10T03:50:15.701Z,100739.97
2023-04-10T03:52:51.280Z,100729.97
2023-04-10T03:55:21.128Z,100739.09
2023-04-10T03:57:49.591Z,100733.28
2023-04-10T04:00:18.463Z,100740.63
2023-04-10T04:02:50.994Z,100734.78
2023-04-10T04:05:38.527Z,100733.50
2023-04-10T04:08:23.752Z,100729.59
2023-04-10T04:11:28.910Z,100740.97
2023-04-10T04:13:58.880Z,100741.09
2023-04-10T04:16:40.950Z,100742.06
2023-04-10T04:19:28.314Z,100735.88
2023-04-10T04:22:12.436Z,100742.91
2023-04-10T04:24:57.650Z,100739.13
2023-04-10T04:27:50.777Z,100746.72
2023-04-10T04:30:32.447Z,100741.56
2023-04-10T04:33:16.725Z,100742.53
2023-04-10T04:35:58.090Z,100752.34
2023-04-10T04:38:47.892Z,100752.34
2023-04-10T04:41:32.565Z,100753.03
2023-04-10T04:44:28.814Z,100749.09
2023-04-10T04:47:04.094Z,100760.38
2023-04-10T04:49:39.888Z,100757.69
2023-04-10T04:52:27.578Z,100765.03
2023-04-10T04:55:17.686Z,100765.66
2023-04-10T04:57:57.465Z,100764.50
2023-04-10T05:00:31.688Z,100774.22
2023-04-10T05:03:06.981Z,100772.28
2023-04-10T05:05:33.768Z,100783.28
2023-04-10T05:08:33.002Z,100779.38
2023-04-10T05:11:05.814Z,100787.97
2023-04-10T05:13:38.844Z,100794.22
2023-04-10T05:16:15.840Z,100792.97
2023-04-10T05:19:01.444Z,100792.34
2023-04-10T05:21:47.719Z,100796.72
2023-04-10T05:24:40.842Z,100796.88
2023-04-10T05:27:21.549Z,100810.75
2023-04-10T05:30:08.659Z,100808.19
2023-04-10T05:32:52.030Z,100807.53
2023-04-10T05:35:37.594Z,100803.16
2023-04-10T05:38:21.462Z,100807.97
2023-04-10T05:41:12.733Z,100800.81
2023-04-10T05:43:55.429Z,100812.16
2023-04-10T05:46:31.518Z,100806.13
2023-04-10T05:49:21.595Z,100819.50
2023-04-10T05:52:04.519Z,100823.38
2023-04-10T05:54:49.907Z,100823.84
2023-04-10T05:57:35.928Z,100819.84
2023-04-10T06:00:06.184Z,100825.88
2023-04-10T06:03:03.733Z,100818.47
2023-04-10T06:05:32.181Z,100817.31
2023-04-10T06:08:08.029Z,100824.59
2023-04-10T06:10:34.902Z,100824.59
2023-04-10T06:13:01.963Z,100826.16
2023-04-10T06:15:30.937Z,100830.66
2023-04-10T06:17:58.162Z,100836.09
2023-04-10T06:20:25.748Z,100823.50
2023-04-10T06:22:53.512Z,100827.19
2023-04-10T06:25:20.316Z,100818.25
2023-04-10T06:27:48.067Z,100825.25
2023-04-10T06:30:14.840Z,100832.50
2023-04-10T06:32:41.963Z,100826.59
2023-04-10T06:35:09.734Z,100825.97
2023-04-10T06:37:36.613Z,100831.91
2023-04-10T06:40:09.216Z,100833.41
2023-04-10T06:42:36.916Z,100822.47
2023-04-10T06:45:14.621Z,100832.22
2023-04-10T06:47:41.621Z,100831.41
2023-04-10T06:50:08.608Z,100839.53
2023-04-10T06:52:35.616Z,100841.88
2023-04-10T06:55:02.497Z,100835.13
2023-04-10T06:57:30.588Z,100840.78
2023-04-10T06:59:57.393Z,100836.34
2023-04-10T07:02:24.299Z,100840.22
2023-04-10T07:04:51.815Z,100832.09
2023-04-10T07:07:19.426Z,100832.59
2023-04-10T07:09:46.202Z,100839.91
2023-04-10T07:12:13.025Z,100831.34
2023-04-10T07:14:39.870Z,100832.06
2023-04-10T07:17:06.798Z,100846.91
2023-04-10T07:19:34.130Z,100843.41
2023-04-10T07:22:01.429Z,100833.63
2023-04-10T07:24:28.437Z,100840.81
2023-04-10T07:26:57.338Z,100845.66
2023-04-10T07:29:26.407Z,100848.47
2023-04-10T07:31:53.276Z,100841.41
2023-04-10T07:34:20.110Z,100854.56
2023-04-10T07:36:47.327Z,100850.72
2023-04-10T07:39:14.305Z,100848.09
2023-04-10T07:41:47.539Z,100845.09
2023-04-10T07:44:14.670Z,100842.53
2023-04-10T07:46:41.933Z,100839.94
2023-04-10T07:49:14.282Z,100840.06
2023-04-10T07:51:41.715Z,100841.53
2023-04-10T07:54:08.574Z,100832.88
2023-04-10T07:56:41.364Z,100840.94
2023-04-10T07:59:08.237Z,100838.03
2023-04-10T08:01:35.087Z,100842.25
2023-04-10T08:04:04.781Z,100834.97
2023-04-10T08:06:32.985Z,100839.53
2023-04-10T08:08:59.751Z,100838.56
2023-04-10T08:11:37.441Z,100830.78
2023-04-10T08:14:07.122Z,100833.03
2023-04-10T08:16:39.174Z,100835.38
2023-04-10T08:19:09.123Z,100830.19
2023-04-10T08:21:37.255Z,100821.34
2023-04-10T08:24:09.821Z,100827.41
2023-04-10T08:26:37.760Z,100829.66
2023-04-10T08:29:06.606Z,100826.09
2023-04-10T08:31:36.746Z,100828.25
2023-04-10T08:34:07.225Z,100838.66
2023-04-10T08:36:34.807Z,100836.03
2023-04-10T08:39:01.798Z,100828.84
2023-04-10T08:41:33.652Z,100828.88
2023-04-10T08:44:00.911Z,100829.75
2023-04-10T08:46:32.740Z,100843.81
2023-04-10T08:49:05.624Z,100839.78
2023-04-10T08:51:41.656Z,100827.50
2023-04-10T08:54:20.475Z,100831.13
2023-04-10T08:56:52.514Z,100831.75
2023-04-10T08:59:21.500Z,100827.16
2023-04-10T09:01:49.430Z,100823.13
2023-04-10T09:04:21.694Z,100818.03
2023-04-10T09:06:50.860Z,100821.66
2023-04-10T09:09:20.070Z,100820.03
2023-04-10T09:11:52.984Z,100814.91
2023-04-10T09:14:38.857Z,100820.50
2023-04-10T09:17:14.632Z,100813.72
2023-04-10T09:19:43.233Z,100810.47
2023-04-10T09:22:11.248Z,100809.56
2023-04-10T09:24:42.138Z,100800.63
2023-04-10T09:27:27.590Z,100804.25
2023-04-10T09:29:54.356Z,100805.84
2023-04-10T09:32:52.600Z,100805.34
2023-04-10T09:35:24.711Z,100803.28
2023-04-10T09:37:53.834Z,100799.78
2023-04-10T09:40:28.029Z,100789.53
2023-04-10T09:42:56.735Z,100790.75
2023-04-10T09:45:23.648Z,100791.56
2023-04-10T09:48:22.996Z,100783.31
2023-04-10T09:50:58.765Z,100788.75
2023-04-10T09:53:27.744Z,100781.88
2023-04-10T09:55:55.149Z,100780.13
2023-04-10T09:58:22.489Z,100772.75
2023-04-10T10:00:52.401Z,100765.53
2023-04-10T10:03:25.544Z,100770.34
2023-04-10T10:05:52.249Z,100763.03
2023-04-10T10:08:19.935Z,100769.94
2023-04-10T10:10:59.049Z,100763.41
2023-04-10T10:13:38.454Z,100756.22
2023-04-10T10:16:12.292Z,100745.41
2023-04-10T10:19:04.040Z,100750.63
2023-04-10T10:21:36.693Z,100739.41
2023-04-10T10:24:08.786Z,100741.75
2023-04-10T10:26:39.935Z,100735.75
2023-04-10T10:29:11.553Z,100731.53
2023-04-10T10:31:43.298Z,100734.16
2023-04-10T10:34:11.122Z,100734.63
2023-04-10T10:36:40.559Z,100734.66
2023-04-10T10:39:28.998Z,100724.59
2023-04-10T10:42:11.130Z,100727.63
2023-04-10T10:44:51.095Z,100724.38
2023-04-10T10:47:27.488Z,100726.22
2023-04-10T10:50:02.483Z,100713.34
2023-04-10T10:52:49.890Z,100715.38
2023-04-10T10:55:25.842Z,100721.38
2023-04-10T10:57:54.450Z,100715.53
2023-04-10T11:00:22.622Z,100721.91
2023-04-10T11:03:08.084Z,100711.94
2023-04-10T11:06:08.512Z,100701.66
2023-04-10T11:08:42.601Z,100709.25
2023-04-10T11:11:25.612Z,100691.75
2023-04-10T11:13:58.058Z,100692.31
2023-04-10T11:16:34.948Z,100695.19
2023-04-10T11:19:14.870Z,100694.28
2023-04-10T11:22:02.512Z,100690.47
2023-04-10T11:24:30.523Z,100681.59
2023-04-10T11:26:57.676Z,100682.75
2023-04-10T11:29:31.467Z,100673.94
2023-04-10T11:32:00.764Z,100679.16
2023-04-10T11:34:28.711Z,100683.41
2023-04-10T11:36:55.820Z,100671.16
2023-04-10T11:39:22.752Z,100671.47
2023-04-10T11:41:53.221Z,100658.91
2023-04-10T11:44:36.978Z,100658.81
2023-04-10T11:47:04.577Z,100661.06
2023-04-10T11:49:33.259Z,100645.69
2023-04-10T11:52:00.236Z,100647.72
2023-04-10T11:54:29.277Z,100651.81
2023-04-10T11:56:57.129Z,100643.66
2023-04-10T11:59:24.477Z,100644.81
2023-04-10T12:01:56.330Z,100627.53
2023-04-10T12:04:24.406Z,100625.72
2023-04-10T12:06:53.451Z,100637.06
2023-04-10T12:09:24.208Z,100628.84
2023-04-10T12:11:59.791Z,100626.56
2023-04-10T12:14:35.264Z,100629.94
2023-04-10T12:17:03.185Z,100612.25
2023-04-10T12:19:31.036Z,100614.56
2023-04-10T12:21:59.869Z,100612.97
2023-04-10T12:24:46.822Z,100606.69
2023-04-10T12:27:27.771Z,100605.03
2023-04-10T12:29:56.850Z,100594.84
2023-04-10T12:32:24.932Z,100592.44
2023-04-10T12:34:59.029Z,100589.03
2023-04-10T12:37:45.818Z,100592.16
2023-04-10T12:40:13.397Z,100582.69
2023-04-10T12:42:46.172Z,100582.47
2023-04-10T12:45:15.387Z,100570.25
2023-04-10T12:47:51.791Z,100569.47
2023-04-10T12:50:23.525Z,100569.91
2023-04-10T12:53:09.292Z,100564.75
2023-04-10T12:55:39.811Z,100567.19
2023-04-10T12:58:23.144Z,100561.09
2023-04-10T13:00:49.923Z,100560.25
2023-04-10T13:03:17.361Z,100557.16
2023-04-10T13:05:47.872Z,100536.47
2023-04-10T13:08:16.789Z,100536.78
2023-04-10T13:10:43.946Z,100541.81
2023-04-10T13:13:17.936Z,100532.13
2023-04-10T13:15:49.435Z,100536.72
2023-04-10T13:18:27.819Z,100532.28
2023-04-10T13:20:59.754Z,100524.00
2023-04-10T13:23:29.585Z,100529.22
2023-04-10T13:26:01.675Z,100521.94
2023-04-10T13:28:30.416Z,100520.72
2023-04-10T13:30:59.133Z,100517.28
2023-04-10T13:33:25.853Z,100517.97
2023-04-10T13:35:52.799Z,100518.97
2023-04-10T13:38:21.303Z,100508.94
2023-04-10T13:40:49.831Z,100519.06
2023-04-10T13:43:16.621Z,100517.09
2023-04-10T13:45:43.503Z,100510.22
2023-04-10T13:48:12.806Z,100512.69
2023-04-10T13:50:39.627Z,100505.56
2023-04-10T13:53:08.202Z,100503.75
2023-04-10T13:55:37.709Z,100506.94
2023-04-10T13:58:04.903Z,100496.22
2023-04-10T14:00:31.792Z,100495.88
2023-04-10T14:02:58.744Z,100493.28
2023-04-10T14:05:26.914Z,100492.78
2023-04-10T14:07:57.035Z,100483.88
2023-04-10T14:10:25.507Z,100481.72
2023-04-10T14:12:52.441Z,100475.69
2023-04-10T14:15:20.299Z,100476.50
2023-04-10T14:17:47.219Z,100475.34
2023-04-10T14:20:14.224Z,100477.28
2023-04-10T14:22:41.006Z,100477.41
2023-04-10T14:25:13.490Z,100477.84
2023-04-10T14:27:42.162Z,100470.09
2023-04-10T14:30:11.793Z,100461.69
2023-04-10T14:32:41.040Z,100459.97
2023-04-10T14:35:09.906Z,100453.50
2023-04-10T14:37:37.417Z,100452.97
2023-04-10T14:40:05.489Z,100456.66
2023-04-10T14:42:36.072Z,100451.50
2023-04-10T14:45:03.210Z,100442.28
2023-04-10T14:47:31.310Z,100444.59
2023-04-10T14:50:01.375Z,100440.22
2023-04-10T14:52:31.078Z,100435.16
2023-04-10T14:54:58.066Z,100435.94
2023-04-10T14:57:25.171Z,100431.97
2023-04-10T14:59:52.405Z,100427.06
2023-04-10T15:02:20.862Z,100430.81
2023-04-10T15:04:48.826Z,100423.25
2023-04-10T15:07:15.569Z,100422.41
2023-04-10T15:09:43.970Z,100416.66
2023-04-10T15:12:11.013Z,100412.31
2023-04-10T15:14:40.941Z,100409.91
2023-04-10T15:17:08.221Z,100408.09
2023-04-10T15:19:35.434Z,100404.66
2023-04-10T15:22:02.225Z,100399.97
2023-04-10T15:24:32.443Z,100406.22
2023-04-10T15:27:01.733Z,100393.59
2023-04-10T15:29:28.975Z,100407.25
2023-04-10T15:31:59.982Z,100400.59
2023-04-10T15:34:27.098Z,100390.53
2023-04-10T15:36:54.114Z,100389.50
2023-04-10T15:39:23.784Z,100393.06
2023-04-10T15:41:52.047Z,100390.97
2023-04-10T15:44:19.908Z,100382.44
2023-04-10T15:46:48.058Z,100371.84
2023-04-10T15:49:29.624Z,100381.00
2023-04-10T15:52:05.500Z,100373.28
2023-04-10T15:54:35.063Z,100372.78
2023-04-10T15:57:03.681Z,100368.03
2023-04-10T15:59:33.591Z,100372.44
2023-04-10T16:02:00.595Z,100354.34
2023-04-10T16:04:27.696Z,100360.22
2023-04-10T16:06:56.747Z,100356.38
2023-04-10T16:09:26.410Z,100364.50
2023-04-10T16:11:54.498Z,100361.63
2023-04-10T16:14:22.591Z,100356.59
2023-04-10T16:16:51.687Z,100360.53
2023-04-10T16:19:19.408Z,100357.41
2023-04-10T16:21:47.429Z,100352.25
2023-04-10T16:24:16.374Z,100344.28
2023-04-10T16:26:43.610Z,100348.00
2023-04-10T16:29:10.703Z,100343.84
2023-04-10T16:31:37.583Z,100342.13
2023-04-10T16:34:04.544Z,100339.72
2023-04-10T16:36:32.286Z,100336.41
2023-04-10T16:39:00.255Z,100336.03
2023-04-10T16:41:27.272Z,100339.06
2023-04-10T16:43:54.495Z,100330.06
2023-04-10T16:46:21.845Z,100326.31
2023-04-10T16:48:48.773Z,100332.16
2023-04-10T16:51:17.874Z,100329.22
2023-04-10T16:53:45.663Z,100323.22
2023-04-10T16:56:12.414Z,100321.03
2023-04-10T16:58:41.270Z,100322.94
2023-04-10T17:01:16.068Z,100318.00
2023-04-10T17:03:43.177Z,100327.81
2023-04-10T17:06:10.144Z,100330.28
2023-04-10T17:08:37.026Z,100323.88
2023-04-10T17:11:05.319Z,100321.13
2023-04-10T17:13:32.200Z,100319.34
2023-04-10T17:15:59.196Z,100324.44
2023-04-10T17:18:27.226Z,100327.63
2023-04-10T17:20:59.465Z,100325.31
2023-04-10T17:23:26.663Z,100324.91
2023-04-10T17:25:54.862Z,100325.78
2023-04-10T17:28:21.822Z,100321.38
2023-04-10T17:30:48.740Z,100327.47
2023-04-10T17:33:15.541Z,100321.06
2023-04-10T17:35:43.143Z,100322.09
2023-04-10T17:38:10.083Z,100324.97
2023-04-10T17:40:41.302Z,100322.38
2023-04-10T17:43:08.428Z,100325.84
2023-04-10T17:45:38.828Z,100328.06
2023-04-10T17:48:06.677Z,100327.88
2023-04-10T17:50:34.190Z,100332.94
2023-04-10T17:53:02.807Z,100327.53
2023-04-10T17:55:30.108Z,100338.53
2023-04-10T17:57:59.096Z,100334.38
2023-04-10T18:00:26.147Z,100337.78
2023-04-10T18:02:58.188Z,100332.38
2023-04-10T18:05:25.337Z,100337.41
2023-04-10T18:07:53.660Z,100331.00
2023-04-10T18:10:20.640Z,100333.44
2023-04-10T18:12:49.781Z,100327.81
2023-04-10T18:15:19.124Z,100334.63
2023-04-10T18:17:47.986Z,100327.81
2023-04-10T18:20:15.032Z,100336.25
2023-04-10T18:22:42.790Z,100337.06
2023-04-10T18:25:09.950Z,100341.28
2023-04-10T18:27:36.773Z,100341.03
2023-04-10T18:30:03.962Z,100342.66
2023-04-10T18:32:31.240Z,100341.63
2023-04-10T18:34:58.096Z,100341.25
2023-04-10T18:37:24.899Z,100342.63
2023-04-10T18:39:56.777Z,100345.84
2023-04-10T18:42:25.228Z,100349.00
2023-04-10T18:44:52.369Z,100342.00
2023-04-10T18:47:19.199Z,100345.03
2023-04-10T18:49:47.120Z,100340.19
2023-04-10T18:52:13.916Z,100340.00
2023-04-10T18:54:40.849Z,100349.78
2023-04-10T18:57:07.914Z,100348.56
2023-04-10T18:59:37.146Z,100350.38
2023-04-10T19:02:06.262Z,100348.16
2023-04-10T19:04:33.323Z,100344.19
2023-04-10T19:07:00.294Z,100346.97
2023-04-10T19:09:27.437Z,100342.94
2023-04-10T19:11:54.233Z,100344.94
2023-04-10T19:14:21.282Z,100345.34
2023-04-10T19:16:48.062Z,100341.50
2023-04-10T19:19:14.832Z,100337.31
2023-04-10T19:21:41.576Z,100340.91
2023-04-10T19:24:09.012Z,100341.28
2023-04-10T19:26:36.011Z,100347.91
2023-04-10T19:29:05.103Z,100342.84
2023-04-10T19:31:32.303Z,100338.84
2023-04-10T19:33:59.412Z,100344.47
2023-04-10T19:36:27.557Z,100335.06
2023-04-10T19:38:57.528Z,100337.22
2023-04-10T19:41:28.413Z,100340.41
2023-04-10T19:43:55.758Z,100338.63
2023-04-10T19:46:25.794Z,100334.22
2023-04-10T19:48:54.574Z,100330.03
2023-04-10T19:51:21.744Z,100321.44
2023-04-10T19:53:48.609Z,100325.63
2023-04-10T19:56:16.882Z,100326.03
2023-04-10T19:58:45.553Z,100322.44
2023-04-10T20:01:13.626Z,100307.84
2023-04-10T20:03:40.873Z,100302.09
2023-04-10T20:06:08.392Z,100307.66
2023-04-10T20:08:35.810Z,100306.69
2023-04-10T20:11:06.724Z,100308.47
2023-04-10T20:13:34.786Z,100309.69
2023-04-10T20:16:01.979Z,100306.03
2023-04-10T20:18:31.539Z,100299.63
2023-04-10T20:20:58.329Z,100311.22
2023-04-10T20:23:27.971Z,100303.84
2023-04-10T20:25:54.785Z,100314.41
2023-04-10T20:28:21.595Z,100309.81
2023-04-10T20:30:48.353Z,100310.38
2023-04-10T20:33:15.562Z,100308.34
2023-04-10T20:35:42.565Z,100303.94
2023-04-10T20:38:12.250Z,100303.09
2023-04-10T20:40:38.957Z,100295.69
2023-04-10T20:43:11.100Z,100287.84
2023-04-10T20:45:38.477Z,100279.03
2023-04-10T20:48:06.160Z,100283.00
2023-04-10T20:50:33.440Z,100273.38
2023-04-10T20:53:00.220Z,100280.16
2023-04-10T20:55:27.061Z,100282.31
2023-04-10T20:57:53.957Z,100274.09
2023-04-10T21:00:21.239Z,100273.69
2023-04-10T21:02:48.321Z,100270.47
2023-04-10T21:05:15.176Z,100270.03
2023-04-10T21:07:41.958Z,100274.00
2023-04-10T21:10:08.913Z,100269.22
2023-04-10T21:12:35.640Z,100273.16
2023-04-10T21:15:02.428Z,100269.97
2023-04-10T21:17:31.728Z,100267.56
2023-04-10T21:19:59.283Z,100263.53
2023-04-10T21:22:29.123Z,100264.34
2023-04-10T21:24:56.471Z,100257.94
2023-04-10T21:27:24.221Z,100255.91
2023-04-10T21:29:51.192Z,100259.66
2023-04-10T21:32:17.926Z,100248.69
2023-04-10T21:34:44.822Z,100253.25
2023-04-10T21:37:11.659Z,100243.06
2023-04-10T21:39:41.421Z,100244.22
2023-04-10T21:42:09.285Z,100241.47
2023-04-10T21:44:36.358Z,100233.84
2023-04-10T21:47:03.238Z,100228.28
2023-04-10T21:49:30.205Z,100231.06
2023-04-10T21:51:59.194Z,100233.00
2023-04-10T21:54:25.948Z,100221.44
2023-04-10T21:56:53.057Z,100226.97
2023-04-10T21:59:19.850Z,100217.97
2023-04-10T22:01:46.896Z,100221.56
2023-04-10T22:04:13.851Z,100215.94
2023-04-10T22:06:40.811Z,100207.75
2023-04-10T22:09:07.555Z,100209.69
2023-04-10T22:11:35.271Z,100206.09
2023-04-10T22:14:09.301Z,100212.25
2023-04-10T22:16:43.686Z,100212.78
2023-04-10T22:19:11.187Z,100213.97
2023-04-10T22:21:38.076Z,100217.75
2023-04-10T22:24:04.897Z,100203.50
2023-04-10T22:26:32.899Z,100207.06
2023-04-10T22:28:59.837Z,100209.38
2023-04-10T22:31:26.734Z,100206.34
2023-04-10T22:33:53.585Z,100206.75
2023-04-10T22:36:22.139Z,100204.50
2023-04-10T22:38:48.834Z,100191.31
2023-04-10T22:41:15.751Z,100196.06
2023-04-10T22:43:42.486Z,100193.22
2023-04-10T22:46:10.134Z,100195.97
2023-04-10T22:48:36.937Z,100183.41
2023-04-10T22:51:03.793Z,100187.13
2023-04-10T22:53:30.558Z,100182.53
2023-04-10T22:55:57.315Z,100178.69
2023-04-10T22:58:24.105Z,100178.25
2023-04-10T23:00:50.906Z,100174.59
2023-04-10T23:03:17.804Z,100169.78
2023-04-10T23:05:44.626Z,100176.13
2023-04-10T23:08:11.288Z,100165.31
2023-04-10T23:10:37.994Z,100169.91
2023-04-10T23:13:04.709Z,100166.84
2023-04-10T23:15:31.565Z,100160.25
2023-04-10T23:17:58.411Z,100144.91
2023-04-10T23:20:25.801Z,100152.66
2023-04-10T23:22:53.305Z,100145.09
2023-04-10T23:25:20.174Z,100140.91
2023-04-10T23:27:46.892Z,100143.50
2023-04-10T23:30:13.778Z,100145.47
2023-04-10T23:32:40.781Z,100144.19
2023-04-10T23:35:07.887Z,100138.44
2023-04-10T23:37:35.348Z,100141.38
2023-04-10T23:40:02.267Z,100139.13
2023-04-10T23:42:30.080Z,100140.09
2023-04-10T23:44:56.897Z,100144.66
2023-04-10T23:47:23.721Z,100135.94
2023-04-10T23:49:50.934Z,100127.56
2023-04-10T23:52:17.933Z,100124.34
2023-04-10T23:54:45.363Z,100127.09
2023-04-10T23:57:12.171Z,100117.56
2023-04-10T23:59:38.946Z,100117.88
